Time;durP1;ratioP1;P1;durP2;ratioP2;P2;SDS_P1;SDS_P2;PMS_P1;PMS_P2;Temp;Humidity;BMP_temperature;BMP_pressure;BME280_temperature;BME280_humidity;BME280_pressure;Samples;Min_cycle;Max_cycle;Signal;HPM_P1;HPM_P2
2023/06/13 00:00:00;;;;;;;;;;;;;;;23.95;59.94;100886.25;5029444;28;20035;-83
2023/06/13 00:02:28;;;;;;;2.95;2.20;;;;;;;23.86;59.77;100874.69;5026581;28;19947;-83
2023/06/13 00:04:55;;;;;;;2.30;2.00;;;;;;;23.89;59.85;100882.69;5044669;28;20523;-84
2023/06/13 00:07:22;;;;;;;2.85;2.13;;;;;;;23.84;59.75;100869.34;5032896;28;20034;-83
2023/06/13 00:09:47;;;;;;;3.10;2.35;;;;;;;23.94;59.72;100880.94;5030357;28;20107;-83
2023/06/13 00:12:13;;;;;;;;;;;;;;;23.96;59.72;100890.72;5031194;28;20017;-82
2023/06/13 00:14:38;;;;;;;2.40;2.20;;;;;;;23.59;59.67;100836.41;5029992;28;19925;-83
2023/06/13 00:17:04;;;;;;;2.30;2.10;;;;;;;23.80;59.81;100867.56;5033587;28;20515;-83
2023/06/13 00:19:30;;;;;;;;;;;;;;;23.92;59.83;100894.25;5031013;28;20420;-83
2023/06/13 00:21:57;;;;;;;2.30;2.10;;;;;;;23.89;59.90;100888.03;5030696;28;19973;-83
2023/06/13 00:24:23;;;;;;;2.30;2.10;;;;;;;23.86;59.99;100872.03;5062566;28;20467;-83
2023/06/13 00:26:51;;;;;;;;;;;;;;;23.91;59.63;100886.25;5029644;28;20484;-83
2023/06/13 00:29:17;;;;;;;3.05;2.22;;;;;;;23.87;59.49;100874.69;5030755;28;19913;-82
2023/06/13 00:31:43;;;;;;;;;;;;;;;23.89;59.44;100872.91;5029688;28;20041;-82
2023/06/13 00:34:09;;;;;;;2.93;2.57;;;;;;;23.88;59.47;100884.47;5029877;28;20079;-82
2023/06/13 00:36:37;;;;;;;;;;;;;;;23.85;59.59;100876.44;5046455;28;20116;-83
2023/06/13 00:39:02;;;;;;;3.80;2.30;;;;;;;23.82;59.63;100876.47;5030473;28;19913;-83
2023/06/13 00:41:30;;;;;;;;;;;;;;;23.81;59.61;100880.00;5030740;28;20090;-83
2023/06/13 00:43:56;;;;;;;2.85;2.28;;;;;;;23.42;59.96;100820.38;5017704;28;20452;-83
2023/06/13 00:46:28;;;;;;;;;;;;;;;23.74;59.48;100886.19;5022269;28;20172;-82
2023/06/13 00:48:57;;;;;;;2.92;2.20;;;;;;;23.59;59.75;100863.06;5021207;28;19924;-83
2023/06/13 00:51:31;;;;;;;2.92;2.20;;;;;;;23.54;59.67;100846.19;5028907;28;20132;-84
2023/06/13 00:53:59;;;;;;;4.38;2.40;;;;;;;23.40;59.56;100827.47;5012452;28;20626;-83
2023/06/13 00:56:28;;;;;;;3.58;2.00;;;;;;;23.62;59.74;100868.41;5060542;28;20441;-83
2023/06/13 00:58:59;;;;;;;4.47;2.30;;;;;;;23.68;60.14;100872.84;5028589;28;20087;-84
2023/06/13 01:01:27;;;;;;;2.42;2.20;;;;;;;23.43;59.42;100822.16;5018384;28;20501;-83
2023/06/13 01:04:07;;;;;;;2.92;2.30;;;;;;;23.33;59.46;100815.91;5027023;28;20033;-83
2023/06/13 01:06:51;;;;;;;3.83;2.40;;;;;;;23.75;59.43;100880.00;5019431;28;20065;-84
2023/06/13 01:09:21;;;;;;;3.53;2.40;;;;;;;23.64;59.50;100847.06;5015687;28;20048;-82
2023/06/13 01:12:13;;;;;;;2.40;2.20;;;;;;;23.70;59.50;100863.06;4996535;28;20442;-83
2023/06/13 01:15:04;;;;;;;3.00;2.38;;;;;;;23.66;59.76;100867.50;5058231;28;20537;-82
2023/06/13 01:17:34;;;;;;;2.10;1.90;;;;;;;23.57;59.53;100841.72;5027832;28;20053;-82
2023/06/13 01:20:05;;;;;;;2.53;2.33;;;;;;;23.49;59.71;100843.47;5012489;28;20036;-83
2023/06/13 01:22:42;;;;;;;2.35;2.15;;;;;;;23.59;59.69;100876.38;5029632;28;20025;-83
2023/06/13 01:25:45;;;;;;;2.50;2.10;;;;;;;23.60;59.66;100875.50;5050112;28;20030;-83
2023/06/13 01:28:13;;;;;;;2.65;2.45;;;;;;;23.60;59.58;100879.94;5029573;28;20033;-84
2023/06/13 01:30:39;;;;;;;2.50;2.08;;;;;;;23.54;59.33;100846.19;5030001;28;20030;-83
2023/06/13 01:33:05;;;;;;;2.70;2.00;;;;;;;23.51;59.43;100846.16;5028283;28;20033;-83
2023/06/13 01:35:31;;;;;;;2.35;2.15;;;;;;;23.48;59.44;100856.81;5029770;28;20021;-83
2023/06/13 01:37:57;;;;;;;3.08;2.15;;;;;;;23.57;59.61;100878.16;5028450;28;20037;-84
2023/06/13 01:40:22;;;;;;;;;;;;;;;23.68;59.47;100875.50;5028895;28;20029;-84
2023/06/13 01:42:48;;;;;;;2.72;2.30;;;;;;;23.68;59.35;100875.50;5026991;28;19917;-84
2023/06/13 01:45:13;;;;;;;;;;;;;;;23.67;59.35;100882.63;5030235;28;20532;-83
2023/06/13 01:47:47;;;;;;;3.45;2.30;;;;;;;23.68;59.28;100884.41;5025464;28;19928;-83
2023/06/13 01:50:27;;;;;;;3.08;2.30;;;;;;;23.55;59.20;100872.81;5027898;28;20033;-83
2023/06/13 01:52:59;;;;;;;2.80;2.45;;;;;;;23.69;59.46;100890.63;5031009;28;20036;-83
2023/06/13 01:55:32;;;;;;;2.65;2.13;;;;;;;23.59;59.41;100887.06;5023295;28;20033;-83
2023/06/13 01:58:04;;;;;;;2.72;2.20;;;;;;;23.67;59.41;100903.97;5016165;28;20038;-83
2023/06/13 02:00:29;;;;;;;2.45;2.25;;;;;;;23.53;59.46;100882.59;5004908;28;20612;-83
2023/06/13 02:02:55;;;;;;;;;;;;;;;23.71;59.67;100902.19;5023630;28;20151;-82
2023/06/13 02:05:21;;;;;;;2.53;2.10;;;;;;;23.60;59.47;100891.50;5029195;28;19959;-81
2023/06/13 02:07:46;;;;;;;;;;;;;;;23.71;59.44;100912.88;5030604;28;20457;-82
2023/06/13 02:10:12;;;;;;;2.00;1.90;;;;;;;23.60;59.47;100891.50;5029500;28;19936;-84
2023/06/13 02:12:38;;;;;;;;;;;;;;;23.68;59.46;100905.72;5028211;28;20027;-84
2023/06/13 02:15:04;;;;;;;2.30;2.10;;;;;;;23.65;59.30;100899.50;5033718;28;19920;-83
2023/06/13 02:17:30;;;;;;;2.55;2.35;;;;;;;23.65;59.55;100910.19;5035230;28;20030;-84
2023/06/13 02:19:55;;;;;;;2.30;2.10;;;;;;;23.60;59.31;100899.50;5031651;28;20029;-84
2023/06/13 02:22:21;;;;;;;2.15;1.95;;;;;;;23.65;59.19;100918.19;5032999;28;20053;-84
2023/06/13 02:24:47;;;;;;;3.22;2.10;;;;;;;23.57;59.26;100903.03;5033092;28;20033;-84
2023/06/13 02:27:12;;;;;;;3.50;2.22;;;;;;;23.64;59.31;100913.72;5032718;28;20108;-84
2023/06/13 02:29:38;;;;;;;;;;;;;;;23.64;59.24;100911.06;5064888;28;20040;-84
2023/06/13 02:32:05;;;;;;;2.67;2.30;;;;;;;23.59;59.23;100911.03;5033488;28;19990;-83
2023/06/13 02:34:30;;;;;;;2.60;2.22;;;;;;;23.42;59.35;100903.00;5064716;28;20033;-82
2023/06/13 02:36:56;;;;;;;2.28;2.08;;;;;;;23.20;59.43;100863.81;5033159;28;20050;-83
2023/06/13 02:39:22;;;;;;;;;;;;;;;23.50;59.49;100917.25;5033204;28;20091;-82
2023/06/13 02:41:48;;;;;;;2.35;2.03;;;;;;;23.45;59.48;100915.44;5032741;28;19916;-83
2023/06/13 02:44:13;;;;;;;2.80;2.30;;;;;;;23.31;59.49;100900.28;5032332;28;20091;-83
2023/06/13 02:46:39;;;;;;;2.40;2.20;;;;;;;23.16;59.42;100865.59;5032079;28;20113;-83
2023/06/13 02:49:05;;;;;;;4.10;2.30;;;;;;;23.30;59.42;100887.84;5031185;28;20516;-82
2023/06/13 02:51:31;;;;;;;2.42;2.20;;;;;;;23.42;59.24;100902.13;5030685;28;20034;-82
2023/06/13 02:53:56;;;;;;;;;;;;;;;23.52;59.25;100919.91;5032609;28;20022;-82
2023/06/13 02:56:22;;;;;;;2.30;2.10;;;;;;;23.48;59.26;100911.00;5029440;28;20012;-82
2023/06/13 02:58:47;;;;;;;2.38;2.17;;;;;;;23.48;59.24;100911.00;5030711;28;20812;-82
2023/06/13 03:01:14;;;;;;;;;;;;;;;23.54;59.25;100919.03;5031322;28;20037;-81
2023/06/13 03:03:40;;;;;;;2.30;2.10;;;;;;;23.34;59.35;100888.75;5032138;28;19963;-82
2023/06/13 03:06:07;;;;;;;;;;;;;;;23.53;59.21;100922.56;5030377;28;20021;-82
2023/06/13 03:08:33;;;;;;;2.53;2.10;;;;;;;23.41;59.29;100903.91;5029933;28;19917;-82
2023/06/13 03:10:58;;;;;;;2.47;2.28;;;;;;;23.39;59.38;100911.00;5034011;28;20041;-82
2023/06/13 03:13:24;;;;;;;3.13;1.98;;;;;;;23.47;59.34;100917.22;5034812;28;20025;-82
2023/06/13 03:15:51;;;;;;;;;;;;;;;23.51;59.27;100919.00;5024950;28;20046;-81
2023/06/13 03:18:18;;;;;;;2.25;2.00;;;;;;;23.50;59.48;100922.56;5030157;28;20364;-81
2023/06/13 03:20:47;;;;;;;2.28;2.08;;;;;;;23.49;59.48;100918.09;5030104;28;20532;-81
2023/06/13 03:23:14;;;;;;;3.25;2.00;;;;;;;23.43;59.14;100918.13;5030194;28;20834;-82
2023/06/13 03:25:40;;;;;;;3.13;2.20;;;;;;;23.34;59.19;100889.63;5026853;28;20509;-82
2023/06/13 03:28:06;;;;;;;3.40;2.00;;;;;;;23.33;59.42;100898.53;5024509;28;20040;-82
2023/06/13 03:30:31;;;;;;;2.65;2.17;;;;;;;23.43;59.46;100917.19;5025630;28;20030;-83
2023/06/13 03:32:57;;;;;;;;;;;;;;;23.49;59.30;100930.56;5024344;28;20034;-83
2023/06/13 03:35:23;;;;;;;5.30;1.92;;;;;;;23.40;59.28;100917.22;5028681;28;20391;-83
2023/06/13 03:37:51;;;;;;;2.38;2.15;;;;;;;23.37;59.36;100921.63;5030066;28;20382;-83
2023/06/13 03:40:16;;;;;;;3.30;2.30;;;;;;;23.28;59.31;100913.63;5027607;28;20083;-83
2023/06/13 03:42:42;;;;;;;2.72;2.08;;;;;;;23.44;59.35;100933.22;5030969;28;20033;-83
2023/06/13 03:45:08;;;;;;;3.55;2.05;;;;;;;23.15;59.06;100882.47;5029983;28;20040;-83
2023/06/13 03:47:33;;;;;;;;;;;;;;;23.47;59.21;100938.53;5030583;28;20038;-85
2023/06/13 03:49:59;;;;;;;2.20;2.00;;;;;;;23.36;59.37;100941.16;5029988;28;19967;-83
2023/06/13 03:52:24;;;;;;;2.20;2.00;;;;;;;23.41;59.37;100948.28;5030492;28;20544;-82
2023/06/13 03:54:51;;;;;;;;;;;;;;;23.44;59.31;100948.31;5027328;28;20060;-82
2023/06/13 03:57:16;;;;;;;3.13;2.30;;;;;;;23.43;59.39;100944.78;5026419;28;19917;-83
2023/06/13 03:59:42;;;;;;;2.40;2.03;;;;;;;23.44;59.36;100945.66;5025983;28;20618;-82
2023/06/13 04:02:08;;;;;;;2.03;1.83;;;;;;;23.44;59.35;100949.19;5015413;28;20060;-82
2023/06/13 04:04:34;;;;;;;2.20;1.85;;;;;;;23.44;59.23;100949.19;5021211;28;20527;-83
2023/06/13 04:07:04;;;;;;;;;;;;;;;23.46;59.26;100952.75;5025129;28;20677;-82
2023/06/13 04:09:29;;;;;;;2.05;1.77;;;;;;;23.37;59.22;100944.75;5035670;28;19917;-83
2023/06/13 04:11:55;;;;;;;1.80;1.70;;;;;;;23.35;59.37;100950.06;5025493;28;20038;-82
2023/06/13 04:14:20;;;;;;;2.15;1.90;;;;;;;23.29;59.32;100939.38;5022419;28;20124;-82
2023/06/13 04:16:46;;;;;;;2.17;1.80;;;;;;;23.30;59.18;100932.25;5027232;28;20523;-84
2023/06/13 04:19:18;;;;;;;2.03;1.83;;;;;;;23.41;59.29;100953.63;5027143;28;20480;-82
2023/06/13 04:21:47;;;;;;;2.38;2.17;;;;;;;23.41;59.34;100950.94;5031959;28;20033;-82
2023/06/13 04:24:16;;;;;;;2.17;1.92;;;;;;;23.37;59.38;100958.06;5029017;28;20031;-82
2023/06/13 04:26:45;;;;;;;4.05;1.88;;;;;;;23.36;59.30;100961.59;5028482;28;20033;-82
2023/06/13 04:29:13;;;;;;;2.13;1.88;;;;;;;23.35;59.50;100966.03;5028810;28;20411;-82
2023/06/13 04:31:39;;;;;;;2.13;1.95;;;;;;;23.31;59.46;100963.38;5025357;28;20692;-82
2023/06/13 04:34:07;;;;;;;2.10;1.88;;;;;;;23.21;59.50;100958.88;5027488;28;20025;-82
2023/06/13 04:36:33;;;;;;;1.90;1.80;;;;;;;23.30;59.49;100966.91;5029265;28;20034;-82
2023/06/13 04:39:06;;;;;;;2.00;1.90;;;;;;;23.24;59.38;100961.53;5052456;28;20409;-82
2023/06/13 04:41:37;;;;;;;2.25;1.80;;;;;;;23.17;59.46;100961.50;5027223;28;20029;-83
2023/06/13 04:44:03;;;;;;;2.20;1.98;;;;;;;23.21;59.47;100962.41;5025937;28;20064;-83
2023/06/13 04:46:30;;;;;;;2.35;2.15;;;;;;;23.25;59.33;100977.53;5022807;28;20117;-83
2023/06/13 04:48:57;;;;;;;2.35;1.83;;;;;;;23.16;59.37;100970.38;5023022;28;20155;-83
2023/06/13 04:51:23;;;;;;;2.50;1.80;;;;;;;23.10;59.36;100950.81;5018521;28;20059;-84
2023/06/13 04:53:52;;;;;;;2.50;2.10;;;;;;;23.15;59.38;100962.38;5025805;28;20033;-83
2023/06/13 04:56:17;;;;;;;3.53;2.20;;;;;;;23.11;59.46;100966.81;5024992;28;20092;-84
2023/06/13 04:58:43;;;;;;;2.80;2.10;;;;;;;23.16;59.47;100974.84;5054872;28;20045;-82
2023/06/13 05:01:11;;;;;;;3.17;1.92;;;;;;;23.13;59.62;100973.03;5026109;28;20036;-82
2023/06/13 05:03:38;;;;;;;2.13;1.92;;;;;;;23.09;59.52;100965.94;5026486;28;20049;-81
2023/06/13 05:06:03;;;;;;;2.38;2.17;;;;;;;23.04;59.46;100959.66;5028787;28;20072;-82
2023/06/13 05:08:30;;;;;;;2.50;2.10;;;;;;;23.15;59.47;100976.59;5025456;28;20056;-82
2023/06/13 05:10:57;;;;;;;2.15;1.95;;;;;;;23.13;59.51;100967.69;5022975;28;20049;-82
2023/06/13 05:13:24;;;;;;;2.33;1.95;;;;;;;23.24;59.47;100985.50;5028212;28;20021;-82
2023/06/13 05:15:49;;;;;;;1.65;1.55;;;;;;;23.28;59.52;100989.97;5023826;28;20128;-82
2023/06/13 05:18:17;;;;;;;2.30;2.10;;;;;;;23.12;59.55;100959.72;5026506;28;20105;-82
2023/06/13 05:20:43;;;;;;;2.90;2.00;;;;;;;23.25;59.35;100984.66;5020817;28;20038;-81
2023/06/13 05:23:10;;;;;;;3.55;2.72;;;;;;;23.23;59.34;100986.41;5020155;28;20037;-81
2023/06/13 05:25:36;;;;;;;2.67;2.47;;;;;;;23.13;59.36;100983.69;5054543;28;20033;-81
2023/06/13 05:28:02;;;;;;;2.65;2.17;;;;;;;23.14;59.49;100996.13;5021675;28;20103;-80
2023/06/13 05:30:28;;;;;;;2.65;2.15;;;;;;;23.20;59.42;100992.63;5027670;28;20041;-81
2023/06/13 05:32:54;;;;;;;2.67;2.00;;;;;;;23.21;59.47;100990.84;5027787;28;20401;-82
2023/06/13 05:35:20;;;;;;;2.42;2.03;;;;;;;23.20;59.52;100992.63;5051029;28;20038;-82
2023/06/13 05:37:46;;;;;;;2.42;2.22;;;;;;;23.16;59.48;100981.03;5029696;28;20021;-81
2023/06/13 05:40:12;;;;;;;2.80;2.50;;;;;;;23.23;59.13;100989.97;5025548;28;20137;-83
2023/06/13 05:42:38;;;;;;;;;;;;;;;23.28;59.32;100998.88;5055376;28;20029;-84
2023/06/13 05:45:05;;;;;;;2.40;2.20;;;;;;;23.21;59.42;100982.84;5023717;28;19921;-82
2023/06/13 05:47:30;;;;;;;3.70;2.30;;;;;;;23.29;59.34;101007.75;5025924;28;20049;-82
2023/06/13 05:49:56;;;;;;;3.42;2.13;;;;;;;22.92;59.31;100933.84;5024974;28;20496;-82
2023/06/13 05:52:22;;;;;;;;;;;;;;;23.28;59.32;101000.63;5022282;28;20457;-83
2023/06/13 05:54:47;;;;;;;3.08;2.25;;;;;;;23.14;59.12;100971.28;5029163;28;19963;-82
2023/06/13 05:57:14;;;;;;;2.88;2.63;;;;;;;23.29;59.33;100997.09;5059341;28;20575;-81
2023/06/13 05:59:40;;;;;;;2.33;2.13;;;;;;;23.22;59.29;100997.94;5030528;28;20034;-82
2023/06/13 06:02:07;;;;;;;2.40;2.20;;;;;;;23.26;59.36;101002.41;5031741;28;20040;-83
2023/06/13 06:04:32;;;;;;;2.70;2.50;;;;;;;23.31;59.16;101006.88;5025451;28;20040;-82
2023/06/13 06:06:58;;;;;;;3.05;2.60;;;;;;;23.12;59.27;100976.59;5030109;28;20021;-81
2023/06/13 06:09:23;;;;;;;;;;;;;;;23.33;59.03;101010.44;5032262;28;20056;-81
2023/06/13 06:11:51;;;;;;;2.40;2.20;;;;;;;23.34;59.12;101004.22;5028425;28;19921;-82
2023/06/13 06:14:16;;;;;;;2.33;2.13;;;;;;;23.28;59.22;101004.22;5028124;28;20041;-81
2023/06/13 06:16:42;;;;;;;3.05;2.40;;;;;;;22.96;59.20;100946.28;5031443;28;20102;-82
2023/06/13 06:19:08;;;;;;;2.50;2.30;;;;;;;23.33;59.14;101006.91;5031244;28;20025;-81
2023/06/13 06:21:33;;;;;;;;;;;;;;;23.40;59.19;101018.47;5031376;28;20040;-82
2023/06/13 06:23:59;;;;;;;2.65;2.45;;;;;;;23.33;59.44;101013.13;5026267;28;19983;-82
2023/06/13 06:26:26;;;;;;;;;;;;;;;23.31;59.52;101006.00;5027910;28;20030;-84
2023/06/13 06:28:52;;;;;;;2.25;2.05;;;;;;;23.22;59.24;100985.53;5026941;28;19967;-83
2023/06/13 06:31:17;;;;;;;;;;;;;;;23.35;59.29;100999.81;5031541;28;20037;-83
2023/06/13 06:33:43;;;;;;;2.42;2.22;;;;;;;23.24;59.38;100990.84;5030002;28;20388;-83
2023/06/13 06:36:08;;;;;;;;;;;;;;;23.34;59.17;101004.22;5014676;28;20033;-82
2023/06/13 06:38:34;;;;;;;2.50;2.30;;;;;;;23.26;59.42;100999.75;5031398;28;20542;-82
2023/06/13 06:40:59;;;;;;;2.72;2.53;;;;;;;23.18;59.21;100978.41;5020383;28;20583;-82
2023/06/13 06:43:25;;;;;;;;;;;;;;;23.34;59.44;101004.22;5031825;28;20037;-82
2023/06/13 06:45:51;;;;;;;2.38;2.17;;;;;;;23.26;59.72;101005.06;5031794;28;20411;-82
2023/06/13 06:48:16;;;;;;;;;;;;;;;23.30;59.52;101010.41;5030179;28;20033;-83
2023/06/13 06:50:42;;;;;;;2.88;2.10;;;;;;;23.28;59.52;101003.31;5029246;28;19913;-82
2023/06/13 06:53:07;;;;;;;;;;;;;;;23.28;59.63;101011.31;5030060;28;20041;-82
2023/06/13 06:55:33;;;;;;;2.40;2.20;;;;;;;23.27;59.59;101005.09;5029209;28;19924;-83
2023/06/13 06:57:58;;;;;;;2.90;2.30;;;;;;;23.26;59.64;101007.72;5030412;28;20033;-82
2023/06/13 07:00:24;;;;;;;;;;;;;;;23.23;59.64;101010.41;5030205;28;20025;-81
2023/06/13 07:02:50;;;;;;;3.58;2.33;;;;;;;23.28;59.67;100997.97;5031656;28;20000;-82
2023/06/13 07:05:16;;;;;;;5.63;2.60;;;;;;;23.27;59.45;101005.09;5029822;28;20025;-81
2023/06/13 07:07:42;;;;;;;3.25;2.40;;;;;;;23.05;59.69;100966.78;5031073;28;20025;-82
2023/06/13 07:10:08;;;;;;;3.97;2.80;;;;;;;23.30;59.43;101007.75;5030223;28;20029;-81
2023/06/13 07:12:34;;;;;;;2.40;2.20;;;;;;;23.29;59.52;101002.44;5030700;28;20021;-82
2023/06/13 07:15:00;;;;;;;;;;;;;;;23.32;59.39;101000.66;5031650;28;20053;-82
2023/06/13 07:17:25;;;;;;;3.42;2.53;;;;;;;23.29;59.36;101000.66;5031165;28;19917;-82
2023/06/13 07:19:51;;;;;;;4.70;2.80;;;;;;;23.28;59.78;101006.88;5031338;28;20076;-81
2023/06/13 07:22:17;;;;;;;2.80;2.38;;;;;;;23.18;59.60;100991.72;5031171;28;20637;-81
2023/06/13 07:24:42;;;;;;;;;;;;;;;23.30;59.52;101002.41;5030780;28;20117;-81
2023/06/13 07:27:08;;;;;;;12.73;3.33;;;;;;;23.26;59.36;100991.75;5029850;28;19920;-82
2023/06/13 07:29:34;;;;;;;4.43;2.97;;;;;;;23.35;59.38;101003.34;5031390;28;20033;-80
2023/06/13 07:32:03;;;;;;;5.43;2.80;;;;;;;23.20;59.33;100983.72;5029969;28;20025;-80
2023/06/13 07:34:29;;;;;;;5.82;3.08;;;;;;;23.31;59.51;101003.34;5031814;28;20029;-81
2023/06/13 07:36:54;;;;;;;3.25;2.58;;;;;;;23.27;59.53;100994.44;5031256;28;20036;-82
2023/06/13 07:39:20;;;;;;;;;;;;;;;23.33;59.42;100999.78;5032071;28;20134;-82
2023/06/13 07:41:48;;;;;;;4.13;2.88;;;;;;;23.23;59.70;100989.97;5031436;28;19971;-83
2023/06/13 07:44:14;;;;;;;5.28;2.70;;;;;;;23.36;59.42;101007.78;5031151;28;20108;-83
2023/06/13 07:46:40;;;;;;;5.20;2.60;;;;;;;23.35;59.56;101008.69;5036648;28;20049;-84
2023/06/13 07:49:05;;;;;;;3.45;2.72;;;;;;;23.36;59.55;101004.25;5031193;28;20095;-82
2023/06/13 07:51:33;;;;;;;;;;;;;;;23.41;59.54;101001.59;5037548;28;20080;-84
2023/06/13 07:53:59;;;;;;;4.65;2.85;;;;;;;23.37;59.57;101009.59;5022390;28;20400;-83
2023/06/13 07:56:25;;;;;;;4.45;2.70;;;;;;;23.29;59.68;100991.78;5030111;28;20049;-83
2023/06/13 07:58:51;;;;;;;4.00;2.90;;;;;;;23.26;59.70;100991.75;5030998;28;20033;-83
2023/06/13 08:01:16;;;;;;;;;;;;;;;23.37;59.75;101006.94;5031988;28;20030;-82
2023/06/13 08:03:44;;;;;;;4.43;2.88;;;;;;;23.35;59.77;101003.34;5030660;28;19963;-82
2023/06/13 08:06:09;;;;;;;3.25;2.40;;;;;;;23.21;59.80;100975.75;5030907;28;20081;-83
2023/06/13 08:08:36;;;;;;;7.05;2.95;;;;;;;23.41;59.47;101006.94;5030777;28;20476;-83
2023/06/13 08:11:01;;;;;;;3.30;2.88;;;;;;;23.40;59.79;101003.38;5029754;28;20037;-82
2023/06/13 08:13:27;;;;;;;2.85;2.55;;;;;;;23.40;59.61;100995.38;5031104;28;20044;-82
2023/06/13 08:15:52;;;;;;;3.63;2.88;;;;;;;23.41;59.80;101002.50;5029011;28;20041;-82
2023/06/13 08:18:18;;;;;;;;;;;;;;;23.44;59.71;101001.63;5030062;28;20025;-82
2023/06/13 08:20:47;;;;;;;4.90;3.00;;;;;;;23.43;59.60;100999.81;5025894;28;19964;-82
2023/06/13 08:23:14;;;;;;;2.97;2.70;;;;;;;23.37;59.97;100990.94;5041710;28;20103;-81
2023/06/13 08:25:40;;;;;;;3.40;2.95;;;;;;;23.30;59.87;100961.56;5021255;28;20030;-82
2023/06/13 08:28:07;;;;;;;3.10;2.80;;;;;;;23.46;59.86;100990.09;5022707;28;20493;-82
2023/06/13 08:30:32;;;;;;;4.72;2.90;;;;;;;23.46;59.75;100986.53;5029310;28;20060;-82
2023/06/13 08:33:01;;;;;;;4.60;2.85;;;;;;;23.46;59.88;100976.75;5030339;28;20127;-82
2023/06/13 08:35:27;;;;;;;3.53;2.60;;;;;;;23.45;60.18;100979.41;5031442;28;20032;-83
2023/06/13 08:37:53;;;;;;;3.42;2.85;;;;;;;23.47;60.01;100981.19;5030966;28;20021;-83
2023/06/13 08:40:19;;;;;;;3.00;2.70;;;;;;;23.49;59.83;100978.53;5031295;28;20038;-82
2023/06/13 08:42:45;;;;;;;;;;;;;;;23.51;59.96;100982.09;5030435;28;20496;-83
2023/06/13 08:45:10;;;;;;;3.25;2.70;;;;;;;23.49;59.97;100974.09;5029940;28;20007;-83
2023/06/13 08:47:36;;;;;;;;;;;;;;;23.53;60.02;100975.88;5030157;28;20036;-82
2023/06/13 08:50:02;;;;;;;3.13;2.83;;;;;;;23.47;60.11;100966.97;5013214;28;19913;-83
2023/06/13 08:52:33;;;;;;;;;;;;;;;23.51;60.04;100976.75;5028089;28;20022;-81
2023/06/13 08:54:59;;;;;;;3.28;2.75;;;;;;;23.50;60.13;100972.34;5021167;28;19913;-81
2023/06/13 08:57:27;;;;;;;3.85;2.53;;;;;;;23.43;59.92;100954.50;5029538;28;20033;-81
2023/06/13 08:59:53;;;;;;;4.28;2.85;;;;;;;23.54;59.95;100969.69;5029785;28;20104;-81
2023/06/13 09:02:20;;;;;;;3.22;2.83;;;;;;;23.54;60.04;100959.03;5016253;28;20107;-82
2023/06/13 09:04:47;;;;;;;3.60;2.95;;;;;;;23.55;60.03;100966.13;5030539;28;20378;-83
2023/06/13 09:07:13;;;;;;;3.20;2.90;;;;;;;23.10;60.10;100895.75;5030048;28;20029;-84
2023/06/13 09:09:40;;;;;;;3.33;2.85;;;;;;;23.16;59.88;100902.91;5030284;28;20110;-84
2023/06/13 09:12:11;;;;;;;3.63;2.80;;;;;;;23.56;60.07;100964.38;5061173;28;20025;-84
2023/06/13 09:14:39;;;;;;;3.13;2.53;;;;;;;23.24;60.06;100906.50;5059857;28;20532;-83
2023/06/13 09:17:05;;;;;;;4.30;3.13;;;;;;;23.57;60.07;100959.00;5027551;28;20508;-83
2023/06/13 09:19:31;;;;;;;3.30;3.00;;;;;;;23.48;60.16;100934.13;5027269;28;20039;-83
2023/06/13 09:21:57;;;;;;;2.60;2.40;;;;;;;23.60;60.15;100951.91;5028833;28;20076;-83
2023/06/13 09:24:26;;;;;;;3.03;2.70;;;;;;;23.61;60.17;100954.59;5060491;28;20025;-84
2023/06/13 09:26:52;;;;;;;3.88;2.80;;;;;;;23.57;60.17;100945.69;5060693;28;20029;-84
2023/06/13 09:29:17;;;;;;;5.40;3.30;;;;;;;23.62;60.21;100945.72;5031528;28;20105;-83
2023/06/13 09:31:43;;;;;;;;;;;;;;;23.65;60.06;100947.50;5034335;28;20719;-82
2023/06/13 09:34:13;;;;;;;3.88;2.80;;;;;;;23.63;60.03;100950.16;5034153;28;20475;-83
2023/06/13 09:36:39;;;;;;;3.60;2.78;;;;;;;23.63;60.29;100942.16;5016362;28;20022;-83
2023/06/13 09:39:05;;;;;;;2.75;2.55;;;;;;;23.45;60.13;100905.69;5033810;28;20032;-83
2023/06/13 09:41:33;;;;;;;;;;;;;;;23.68;60.03;100943.06;5034141;28;20049;-82
2023/06/13 09:44:05;;;;;;;3.25;2.67;;;;;;;23.66;60.32;100933.28;5033922;28;19996;-83
2023/06/13 09:46:37;;;;;;;3.30;2.90;;;;;;;23.71;60.26;100942.19;5033568;28;20222;-81
2023/06/13 09:49:03;;;;;;;3.00;2.70;;;;;;;23.69;60.15;100938.63;5032294;28;20028;-82
2023/06/13 09:51:29;;;;;;;3.35;3.05;;;;;;;23.57;60.42;100912.81;5033359;28;20104;-82
2023/06/13 09:53:55;;;;;;;;;;;;;;;23.71;60.12;100939.53;5033182;28;20564;-82
2023/06/13 09:56:23;;;;;;;3.25;2.95;;;;;;;23.72;60.27;100933.28;5033262;28;19921;-83
2023/06/13 09:58:50;;;;;;;3.17;2.88;;;;;;;23.66;60.16;100919.94;5048579;28;20404;-83
2023/06/13 10:01:17;;;;;;;3.17;2.80;;;;;;;23.74;60.35;100937.75;5032305;28;20420;-84
2023/06/13 10:03:43;;;;;;;4.05;2.78;;;;;;;23.74;60.30;100931.53;5032139;28;20022;-81
2023/06/13 10:06:09;;;;;;;3.08;2.78;;;;;;;23.75;60.29;100934.19;5032334;28;20029;-81
2023/06/13 10:08:35;;;;;;;3.50;2.90;;;;;;;23.76;60.33;100927.13;5032046;28;20017;-81
2023/06/13 10:11:02;;;;;;;;;;;;;;;23.79;60.11;100932.44;5032705;28;20049;-83
2023/06/13 10:13:29;;;;;;;4.07;3.15;;;;;;;23.77;60.19;100935.13;5029551;28;19921;-83
2023/06/13 10:15:58;;;;;;;3.25;2.80;;;;;;;23.77;60.26;100927.13;5032038;28;20038;-83
2023/06/13 10:18:37;;;;;;;3.22;2.90;;;;;;;23.81;60.33;100917.34;5031861;28;20059;-82
2023/06/13 10:21:04;;;;;;;3.30;2.78;;;;;;;23.81;60.37;100922.66;5032985;28;20118;-83
2023/06/13 10:23:33;;;;;;;4.45;2.83;;;;;;;23.82;60.24;100923.59;5032519;28;20025;-84
2023/06/13 10:26:03;;;;;;;4.38;3.08;;;;;;;23.82;60.35;100920.91;5032390;28;20064;-84
2023/06/13 10:28:51;;;;;;;5.13;3.72;;;;;;;23.83;60.79;100923.56;5032959;28;20025;-83
2023/06/13 10:31:28;;;;;;;6.03;3.38;;;;;;;23.92;60.21;100926.28;5031291;28;20121;-84
2023/06/13 10:34:23;;;;;;;4.25;3.15;;;;;;;23.84;59.83;100925.34;5030561;28;20017;-84
2023/06/13 10:37:43;;;;;;;4.60;3.42;;;;;;;23.91;58.58;100934.25;5031935;28;20400;-83
2023/06/13 10:40:27;;;;;;;5.03;3.10;;;;;;;24.01;57.61;100929.84;4973834;28;20066;-83
2023/06/13 10:43:17;;;;;;;5.15;3.05;;;;;;;24.08;56.83;100931.63;5032443;28;20108;-82
2023/06/13 10:45:45;;;;;;;6.18;3.00;;;;;;;24.15;56.22;100925.38;5020669;28;20507;-83
2023/06/13 10:48:12;;;;;;;4.07;3.15;;;;;;;24.21;55.69;100919.16;5033091;28;20190;-83
2023/06/13 10:50:43;;;;;;;4.90;3.00;;;;;;;24.24;55.45;100914.72;5065082;28;20060;-83
2023/06/13 10:53:24;;;;;;;2.90;2.70;;;;;;;24.26;55.04;100915.63;5033061;28;20163;-83
2023/06/13 10:55:50;;;;;;;3.70;2.70;;;;;;;24.29;54.73;100909.41;5032093;28;20108;-83
2023/06/13 10:58:16;;;;;;;;;;;;;;;24.42;54.46;100926.28;5032117;28;20508;-84
2023/06/13 11:00:43;;;;;;;2.90;2.50;;;;;;;24.29;54.32;100902.25;5033029;28;20399;-83
2023/06/13 11:03:10;;;;;;;3.20;2.78;;;;;;;24.25;54.29;100889.81;5030956;28;20026;-84
2023/06/13 11:05:47;;;;;;;3.53;2.83;;;;;;;24.50;53.84;100921.88;5031024;28;20025;-85
2023/06/13 11:08:14;;;;;;;;;;;;;;;24.54;54.00;100918.31;5019585;28;20021;-84
2023/06/13 11:10:45;;;;;;;3.33;2.60;;;;;;;24.51;53.77;100912.97;5032619;28;19919;-84
2023/06/13 11:13:26;;;;;;;3.45;2.80;;;;;;;24.59;53.75;100924.53;5047142;28;20103;-84
2023/06/13 11:16:03;;;;;;;3.60;2.70;;;;;;;24.55;53.50;100920.06;5031343;28;20049;-85
2023/06/13 11:18:30;;;;;;;3.00;2.70;;;;;;;24.62;53.41;100920.94;5030502;28;20191;-84
2023/06/13 11:20:57;;;;;;;2.65;2.42;;;;;;;24.66;53.23;100918.31;5030389;28;20492;-84
2023/06/13 11:23:32;;;;;;;3.35;2.35;;;;;;;24.66;53.21;100904.94;5063997;28;20477;-84
2023/06/13 11:25:58;;;;;;;3.15;2.38;;;;;;;24.58;53.17;100898.72;5032500;28;20103;-85
2023/06/13 11:28:23;;;;;;;;;;;;;;;24.74;52.91;100913.84;5031056;28;21235;-85
2023/06/13 11:30:51;;;;;;;2.75;2.53;;;;;;;24.76;52.81;100912.06;5028052;28;19921;-85
2023/06/13 11:33:18;;;;;;;2.40;2.20;;;;;;;24.55;52.75;100869.34;5026915;28;20557;-85
2023/06/13 11:35:45;;;;;;;;;;;;;;;24.78;52.91;100907.56;5032133;28;20025;-85
2023/06/13 11:38:15;;;;;;;2.85;2.35;;;;;;;24.69;52.71;100891.56;5017293;28;19917;-85